Terminal Aerodrome Forecast
Issued by NWS Lake Charles, LA

Home | Current Version | Previous Version | Text Only | Print | Product List | Glossary On
Versions: 1 2 3 4 5 6 7 8 9 10 11 12 13 14
000
FTUS44 KLCH 301122
TAFARA
TAF
KARA 301122Z 3012/3112 06007KT P6SM -SHRA SCT025 OVC080
      TEMPO 3012/3014 4SM SHRA BKN025
     FM301600 11010KT P6SM VCSH SCT040 BKN100
     FM302000 12012KT P6SM VCTS BKN050CB
     FM310300 VRB05KT P6SM SCT050 BKN200=

USA.gov is the U.S. government's official web portal to all federal, state and local government web resources and services.